sensor_id;sensor_type;location;lat;lon;timestamp;temperature;humidity
55701;DHT22;41604;43.142;20.512;2024-02-28T00:00:27;308.00;2278.40
55701;DHT22;41604;43.142;20.512;2024-02-28T00:07:45;307.90;2278.40
55701;DHT22;41604;43.142;20.512;2024-02-28T00:10:13;307.80;2278.40
55701;DHT22;41604;43.142;20.512;2024-02-28T00:12:39;307.90;2278.40
55701;DHT22;41604;43.142;20.512;2024-02-28T00:15:07;307.80;2278.40
55701;DHT22;41604;43.142;20.512;2024-02-28T00:17:39;307.80;2278.40
55701;DHT22;41604;43.142;20.512;2024-02-28T00:20:07;307.80;2278.40
55701;DHT22;41604;43.142;20.512;2024-02-28T00:22:32;307.90;2278.40
55701;DHT22;41604;43.142;20.512;2024-02-28T00:24:58;307.80;2278.40
55701;DHT22;41604;43.142;20.512;2024-02-28T00:27:26;307.70;2304.00
55701;DHT22;41604;43.142;20.512;2024-02-28T00:29:52;307.60;2304.00
55701;DHT22;41604;43.142;20.512;2024-02-28T00:32:18;307.60;2304.00
55701;DHT22;41604;43.142;20.512;2024-02-28T00:34:43;307.50;2304.00
55701;DHT22;41604;43.142;20.512;2024-02-28T00:37:09;307.50;2304.00
55701;DHT22;41604;43.142;20.512;2024-02-28T00:39:35;307.50;2304.00
55701;DHT22;41604;43.142;20.512;2024-02-28T00:42:01;307.50;2304.00
55701;DHT22;41604;43.142;20.512;2024-02-28T00:44:26;307.50;2304.00
55701;DHT22;41604;43.142;20.512;2024-02-28T00:46:52;307.40;2304.00
55701;DHT22;41604;43.142;20.512;2024-02-28T00:49:18;307.40;2304.00
55701;DHT22;41604;43.142;20.512;2024-02-28T00:51:45;307.50;2304.00
55701;DHT22;41604;43.142;20.512;2024-02-28T00:54:11;307.40;2304.00
55701;DHT22;41604;43.142;20.512;2024-02-28T00:56:37;307.30;2304.00
55701;DHT22;41604;43.142;20.512;2024-02-28T00:59:02;307.60;2304.00
55701;DHT22;41604;43.142;20.512;2024-02-28T01:03:54;307.40;2304.00
55701;DHT22;41604;43.142;20.512;2024-02-28T01:06:20;307.20;2304.00
55701;DHT22;41604;43.142;20.512;2024-02-28T01:08:46;282.50;2278.40
55701;DHT22;41604;43.142;20.512;2024-02-28T01:11:11;307.20;2304.00
55701;DHT22;41604;43.142;20.512;2024-02-28T01:13:37;307.20;2304.00
55701;DHT22;41604;43.142;20.512;2024-02-28T01:16:03;307.20;2304.00
55701;DHT22;41604;43.142;20.512;2024-02-28T01:18:29;282.50;2278.40
55701;DHT22;41604;43.142;20.512;2024-02-28T01:20:56;282.50;2278.40
55701;DHT22;41604;43.142;20.512;2024-02-28T01:23:22;307.20;2304.00
55701;DHT22;41604;43.142;20.512;2024-02-28T01:25:48;307.20;2304.00
55701;DHT22;41604;43.142;20.512;2024-02-28T01:28:14;307.20;2304.00
55701;DHT22;41604;43.142;20.512;2024-02-28T01:30:39;282.50;2278.40
55701;DHT22;41604;43.142;20.512;2024-02-28T01:33:05;282.50;2278.40
55701;DHT22;41604;43.142;20.512;2024-02-28T01:35:31;282.50;2278.40
55701;DHT22;41604;43.142;20.512;2024-02-28T01:37:57;282.50;2278.40
55701;DHT22;41604;43.142;20.512;2024-02-28T01:40:23;282.50;2278.40
55701;DHT22;41604;43.142;20.512;2024-02-28T01:42:48;307.20;2304.00
55701;DHT22;41604;43.142;20.512;2024-02-28T01:45:14;307.20;2304.00
55701;DHT22;41604;43.142;20.512;2024-02-28T01:47:41;282.50;2278.40
55701;DHT22;41604;43.142;20.512;2024-02-28T01:50:08;282.50;2278.40
55701;DHT22;41604;43.142;20.512;2024-02-28T01:52:36;282.50;2278.40
55701;DHT22;41604;43.142;20.512;2024-02-28T01:55:03;282.40;2278.40
55701;DHT22;41604;43.142;20.512;2024-02-28T01:57:29;282.50;2278.40
55701;DHT22;41604;43.142;20.512;2024-02-28T01:59:55;282.50;2278.40
55701;DHT22;41604;43.142;20.512;2024-02-28T02:02:21;282.40;2278.40
55701;DHT22;41604;43.142;20.512;2024-02-28T02:04:47;282.20;2278.40
55701;DHT22;41604;43.142;20.512;2024-02-28T02:07:13;282.20;2278.40
55701;DHT22;41604;43.142;20.512;2024-02-28T02:09:39;282.20;2278.40
55701;DHT22;41604;43.142;20.512;2024-02-28T02:12:05;282.20;2278.40
55701;DHT22;41604;43.142;20.512;2024-02-28T02:14:31;282.20;2278.40
55701;DHT22;41604;43.142;20.512;2024-02-28T02:16:56;282.20;2278.40
55701;DHT22;41604;43.142;20.512;2024-02-28T02:19:22;282.50;2278.40
55701;DHT22;41604;43.142;20.512;2024-02-28T02:21:51;282.50;2278.40
55701;DHT22;41604;43.142;20.512;2024-02-28T02:24:17;282.10;2278.40
55701;DHT22;41604;43.142;20.512;2024-02-28T02:26:43;282.10;2278.40
55701;DHT22;41604;43.142;20.512;2024-02-28T02:29:12;282.20;2278.40
55701;DHT22;41604;43.142;20.512;2024-02-28T02:31:38;282.50;2278.40
55701;DHT22;41604;43.142;20.512;2024-02-28T02:34:04;282.20;2278.40
55701;DHT22;41604;43.142;20.512;2024-02-28T02:36:30;282.40;2278.40
55701;DHT22;41604;43.142;20.512;2024-02-28T02:38:55;282.50;2278.40
55701;DHT22;41604;43.142;20.512;2024-02-28T02:41:21;282.50;2278.40
55701;DHT22;41604;43.142;20.512;2024-02-28T02:43:47;282.20;2278.40
55701;DHT22;41604;43.142;20.512;2024-02-28T02:46:13;281.80;2278.40
55701;DHT22;41604;43.142;20.512;2024-02-28T02:53:30;281.80;2278.40
55701;DHT22;41604;43.142;20.512;2024-02-28T02:55:56;281.80;2278.40
55701;DHT22;41604;43.142;20.512;2024-02-28T02:58:22;281.80;2278.40
55701;DHT22;41604;43.142;20.512;2024-02-28T03:00:48;281.90;2278.40
55701;DHT22;41604;43.142;20.512;2024-02-28T03:03:13;281.90;2278.40
55701;DHT22;41604;43.142;20.512;2024-02-28T03:05:39;281.90;2278.40
55701;DHT22;41604;43.142;20.512;2024-02-28T03:08:05;281.90;2278.40
55701;DHT22;41604;43.142;20.512;2024-02-28T03:10:31;281.90;2278.40
55701;DHT22;41604;43.142;20.512;2024-02-28T03:12:57;281.80;2278.40
55701;DHT22;41604;43.142;20.512;2024-02-28T03:15:23;281.80;2278.40
55701;DHT22;41604;43.142;20.512;2024-02-28T03:17:48;281.70;2278.40
55701;DHT22;41604;43.142;20.512;2024-02-28T03:20:14;281.60;2278.40
55701;DHT22;41604;43.142;20.512;2024-02-28T03:22:40;281.70;2278.40
55701;DHT22;41604;43.142;20.512;2024-02-28T03:25:06;256.90;2252.80
55701;DHT22;41604;43.142;20.512;2024-02-28T03:27:33;281.60;2278.40
55701;DHT22;41604;43.142;20.512;2024-02-28T03:29:59;281.60;2278.40
55701;DHT22;41604;43.142;20.512;2024-02-28T03:32:25;281.60;2278.40
55701;DHT22;41604;43.142;20.512;2024-02-28T03:34:50;281.60;2278.40
55701;DHT22;41604;43.142;20.512;2024-02-28T03:37:16;281.60;2278.40
55701;DHT22;41604;43.142;20.512;2024-02-28T03:39:42;281.60;2278.40
55701;DHT22;41604;43.142;20.512;2024-02-28T03:42:08;281.60;2278.40
55701;DHT22;41604;43.142;20.512;2024-02-28T03:44:33;281.60;2278.40
55701;DHT22;41604;43.142;20.512;2024-02-28T03:46:59;281.60;2278.40
55701;DHT22;41604;43.142;20.512;2024-02-28T03:49:25;256.90;2252.80
55701;DHT22;41604;43.142;20.512;2024-02-28T03:51:50;256.80;2252.80
55701;DHT22;41604;43.142;20.512;2024-02-28T03:54:16;256.70;2252.80
55701;DHT22;41604;43.142;20.512;2024-02-28T03:56:42;256.50;2252.80
55701;DHT22;41604;43.142;20.512;2024-02-28T03:59:07;256.60;2252.80
55701;DHT22;41604;43.142;20.512;2024-02-28T04:01:34;256.50;2252.80
55701;DHT22;41604;43.142;20.512;2024-02-28T04:04:00;256.60;2252.80
55701;DHT22;41604;43.142;20.512;2024-02-28T04:06:25;256.60;2252.80
55701;DHT22;41604;43.142;20.512;2024-02-28T04:08:51;256.60;2252.80
55701;DHT22;41604;43.142;20.512;2024-02-28T04:11:17;256.60;2252.80
55701;DHT22;41604;43.142;20.512;2024-02-28T04:13:43;256.60;2252.80
55701;DHT22;41604;43.142;20.512;2024-02-28T04:16:09;256.60;2252.80
55701;DHT22;41604;43.142;20.512;2024-02-28T04:18:35;256.50;2252.80
55701;DHT22;41604;43.142;20.512;2024-02-28T04:21:01;256.50;2252.80
55701;DHT22;41604;43.142;20.512;2024-02-28T04:23:27;256.50;2252.80
55701;DHT22;41604;43.142;20.512;2024-02-28T04:25:52;256.50;2252.80
55701;DHT22;41604;43.142;20.512;2024-02-28T04:28:18;256.40;2252.80
55701;DHT22;41604;43.142;20.512;2024-02-28T04:30:44;256.50;2252.80
55701;DHT22;41604;43.142;20.512;2024-02-28T04:33:10;256.50;2252.80
55701;DHT22;41604;43.142;20.512;2024-02-28T04:35:35;256.70;2252.80
55701;DHT22;41604;43.142;20.512;2024-02-28T04:38:01;256.50;2252.80
55701;DHT22;41604;43.142;20.512;2024-02-28T04:40:27;256.40;2252.80
55701;DHT22;41604;43.142;20.512;2024-02-28T04:42:52;256.20;2252.80
55701;DHT22;41604;43.142;20.512;2024-02-28T04:45:18;256.10;2252.80
55701;DHT22;41604;43.142;20.512;2024-02-28T04:47:44;256.30;2252.80
55701;DHT22;41604;43.142;20.512;2024-02-28T04:50:10;256.20;2252.80
55701;DHT22;41604;43.142;20.512;2024-02-28T04:52:36;256.20;2252.80
55701;DHT22;41604;43.142;20.512;2024-02-28T04:55:02;256.20;2252.80
55701;DHT22;41604;43.142;20.512;2024-02-28T04:57:28;256.20;2252.80
55701;DHT22;41604;43.142;20.512;2024-02-28T04:59:54;256.20;2252.80
55701;DHT22;41604;43.142;20.512;2024-02-28T05:02:20;256.30;2252.80
55701;DHT22;41604;43.142;20.512;2024-02-28T05:04:51;256.40;2252.80
55701;DHT22;41604;43.142;20.512;2024-02-28T05:07:17;256.40;2252.80
55701;DHT22;41604;43.142;20.512;2024-02-28T05:09:43;256.40;2252.80
55701;DHT22;41604;43.142;20.512;2024-02-28T05:12:08;256.50;2252.80
55701;DHT22;41604;43.142;20.512;2024-02-28T05:14:34;256.20;2252.80
55701;DHT22;41604;43.142;20.512;2024-02-28T05:17:00;256.20;2252.80
55701;DHT22;41604;43.142;20.512;2024-02-28T05:19:26;256.00;2252.80
55701;DHT22;41604;43.142;20.512;2024-02-28T05:21:51;256.10;2252.80
55701;DHT22;41604;43.142;20.512;2024-02-28T05:24:17;256.20;2252.80
55701;DHT22;41604;43.142;20.512;2024-02-28T05:26:43;256.70;2252.80
55701;DHT22;41604;43.142;20.512;2024-02-28T05:29:09;256.80;2252.80
55701;DHT22;41604;43.142;20.512;2024-02-28T05:31:34;256.50;2252.80
55701;DHT22;41604;43.142;20.512;2024-02-28T05:34:02;256.30;2252.80
55701;DHT22;41604;43.142;20.512;2024-02-28T05:36:29;256.30;2252.80
55701;DHT22;41604;43.142;20.512;2024-02-28T05:38:57;256.30;2252.80
55701;DHT22;41604;43.142;20.512;2024-02-28T05:41:22;256.30;2252.80
55701;DHT22;41604;43.142;20.512;2024-02-28T05:43:49;256.20;2252.80
55701;DHT22;41604;43.142;20.512;2024-02-28T05:46:16;256.20;2252.80
55701;DHT22;41604;43.142;20.512;2024-02-28T05:48:42;256.20;2252.80
55701;DHT22;41604;43.142;20.512;2024-02-28T05:51:08;256.40;2252.80
55701;DHT22;41604;43.142;20.512;2024-02-28T05:53:34;256.40;2252.80
55701;DHT22;41604;43.142;20.512;2024-02-28T05:56:07;256.30;2252.80
55701;DHT22;41604;43.142;20.512;2024-02-28T05:58:43;256.40;2252.80
55701;DHT22;41604;43.142;20.512;2024-02-28T06:01:16;256.50;2252.80
55701;DHT22;41604;43.142;20.512;2024-02-28T06:03:48;256.50;2252.80
55701;DHT22;41604;43.142;20.512;2024-02-28T06:06:14;256.50;2252.80
55701;DHT22;41604;43.142;20.512;2024-02-28T06:08:40;256.40;2252.80
55701;DHT22;41604;43.142;20.512;2024-02-28T06:11:07;256.50;2252.80
55701;DHT22;41604;43.142;20.512;2024-02-28T06:13:32;256.50;2252.80
55701;DHT22;41604;43.142;20.512;2024-02-28T06:15:58;256.50;2252.80
55701;DHT22;41604;43.142;20.512;2024-02-28T06:18:25;256.70;2252.80
55701;DHT22;41604;43.142;20.512;2024-02-28T06:20:55;256.60;2252.80
55701;DHT22;41604;43.142;20.512;2024-02-28T06:23:21;256.50;2252.80
55701;DHT22;41604;43.142;20.512;2024-02-28T06:25:47;282.00;2278.40
55701;DHT22;41604;43.142;20.512;2024-02-28T06:33:06;281.70;2278.40
55701;DHT22;41604;43.142;20.512;2024-02-28T06:35:34;256.80;2252.80
55701;DHT22;41604;43.142;20.512;2024-02-28T06:38:00;256.50;2252.80
55701;DHT22;41604;43.142;20.512;2024-02-28T06:40:26;256.60;2252.80
55701;DHT22;41604;43.142;20.512;2024-02-28T06:42:52;256.30;2252.80
55701;DHT22;41604;43.142;20.512;2024-02-28T06:45:17;256.60;2252.80
55701;DHT22;41604;43.142;20.512;2024-02-28T06:47:43;256.90;2252.80
55701;DHT22;41604;43.142;20.512;2024-02-28T06:50:10;281.60;2278.40
55701;DHT22;41604;43.142;20.512;2024-02-28T06:52:36;256.80;2252.80
55701;DHT22;41604;43.142;20.512;2024-02-28T06:55:02;256.60;2252.80
55701;DHT22;41604;43.142;20.512;2024-02-28T06:57:39;256.60;2252.80
55701;DHT22;41604;43.142;20.512;2024-02-28T07:00:06;256.50;2252.80
55701;DHT22;41604;43.142;20.512;2024-02-28T07:02:37;256.60;2252.80
55701;DHT22;41604;43.142;20.512;2024-02-28T07:09:57;282.10;2278.40
55701;DHT22;41604;43.142;20.512;2024-02-28T08:01:11;281.90;2278.40
55701;DHT22;41604;43.142;20.512;2024-02-28T08:03:37;333.40;2227.20
55701;DHT22;41604;43.142;20.512;2024-02-28T08:06:03;333.40;2201.60
55701;DHT22;41604;43.142;20.512;2024-02-28T08:08:29;333.50;2201.60
55701;DHT22;41604;43.142;20.512;2024-02-28T08:35:18;333.60;2201.60
55701;DHT22;41604;43.142;20.512;2024-02-28T08:37:44;359.30;2073.60
55701;DHT22;41604;43.142;20.512;2024-02-28T08:40:10;384.20;2073.60
55701;DHT22;41604;43.142;20.512;2024-02-28T08:42:37;384.40;2048.00
55701;DHT22;41604;43.142;20.512;2024-02-28T08:45:03;384.80;2022.40
55701;DHT22;41604;43.142;20.512;2024-02-28T08:47:29;384.90;2022.40
55701;DHT22;41604;43.142;20.512;2024-02-28T08:52:21;409.70;1996.80
55701;DHT22;41604;43.142;20.512;2024-02-28T08:54:47;410.20;1971.20
55701;DHT22;41604;43.142;20.512;2024-02-28T08:57:14;410.20;1971.20
55701;DHT22;41604;43.142;20.512;2024-02-28T08:59:40;410.30;1971.20
55701;DHT22;41604;43.142;20.512;2024-02-28T09:02:07;410.30;1945.60
55701;DHT22;41604;43.142;20.512;2024-02-28T09:04:33;435.30;1945.60
55701;DHT22;41604;43.142;20.512;2024-02-28T09:06:59;435.50;1920.00
55701;DHT22;41604;43.142;20.512;2024-02-28T09:09:25;435.60;1894.40
55701;DHT22;41604;43.142;20.512;2024-02-28T09:11:50;435.80;1920.00
55701;DHT22;41604;43.142;20.512;2024-02-28T09:14:16;436.00;1894.40
55701;DHT22;41604;43.142;20.512;2024-02-28T09:16:42;460.80;1894.40
55701;DHT22;41604;43.142;20.512;2024-02-28T09:19:08;461.00;1894.40
55701;DHT22;41604;43.142;20.512;2024-02-28T09:21:34;461.20;1843.20
55701;DHT22;41604;43.142;20.512;2024-02-28T09:24:00;461.40;1843.20
55701;DHT22;41604;43.142;20.512;2024-02-28T09:26:26;461.40;1868.80
55701;DHT22;41604;43.142;20.512;2024-02-28T09:28:52;461.40;1843.20
55701;DHT22;41604;43.142;20.512;2024-02-28T09:31:18;461.40;1868.80
55701;DHT22;41604;43.142;20.512;2024-02-28T09:33:44;461.30;1843.20
55701;DHT22;41604;43.142;20.512;2024-02-28T09:36:11;461.20;1868.80
55701;DHT22;41604;43.142;20.512;2024-02-28T09:38:37;461.00;1868.80
55701;DHT22;41604;43.142;20.512;2024-02-28T09:41:04;460.80;1894.40
55701;DHT22;41604;43.142;20.512;2024-02-28T09:43:40;436.10;1868.80
55701;DHT22;41604;43.142;20.512;2024-02-28T09:46:07;460.80;1894.40
55701;DHT22;41604;43.142;20.512;2024-02-28T09:48:38;460.90;1894.40
55701;DHT22;41604;43.142;20.512;2024-02-28T09:51:06;460.90;1894.40
55701;DHT22;41604;43.142;20.512;2024-02-28T09:53:32;460.90;1894.40
55701;DHT22;41604;43.142;20.512;2024-02-28T09:55:58;460.90;1894.40
55701;DHT22;41604;43.142;20.512;2024-02-28T09:58:25;460.90;1894.40
55701;DHT22;41604;43.142;20.512;2024-02-28T10:00:52;460.90;1894.40
55701;DHT22;41604;43.142;20.512;2024-02-28T10:03:21;460.90;1894.40
55701;DHT22;41604;43.142;20.512;2024-02-28T10:05:48;460.90;1894.40
55701;DHT22;41604;43.142;20.512;2024-02-28T10:08:14;460.80;1920.00
55701;DHT22;41604;43.142;20.512;2024-02-28T10:10:48;460.90;1894.40
55701;DHT22;41604;43.142;20.512;2024-02-28T10:13:16;460.90;1894.40
55701;DHT22;41604;43.142;20.512;2024-02-28T10:15:42;461.00;1894.40
55701;DHT22;41604;43.142;20.512;2024-02-28T10:18:08;461.10;1894.40
55701;DHT22;41604;43.142;20.512;2024-02-28T10:20:34;461.10;1894.40
55701;DHT22;41604;43.142;20.512;2024-02-28T10:23:06;461.10;1868.80
55701;DHT22;41604;43.142;20.512;2024-02-28T10:25:42;461.10;1868.80
55701;DHT22;41604;43.142;20.512;2024-02-28T10:28:09;461.10;1868.80
55701;DHT22;41604;43.142;20.512;2024-02-28T10:30:42;461.20;1868.80
55701;DHT22;41604;43.142;20.512;2024-02-28T10:33:15;461.40;1868.80
55701;DHT22;41604;43.142;20.512;2024-02-28T10:35:42;461.50;1868.80
55701;DHT22;41604;43.142;20.512;2024-02-28T10:38:13;461.60;1843.20
55701;DHT22;41604;43.142;20.512;2024-02-28T10:40:42;461.60;1817.60
55701;DHT22;41604;43.142;20.512;2024-02-28T10:43:09;461.60;1817.60
55701;DHT22;41604;43.142;20.512;2024-02-28T10:45:38;461.70;1792.00
55701;DHT22;41604;43.142;20.512;2024-02-28T10:48:04;461.70;1792.00
55701;DHT22;41604;43.142;20.512;2024-02-28T10:50:31;461.60;1792.00
55701;DHT22;41604;43.142;20.512;2024-02-28T10:53:04;461.60;1792.00
55701;DHT22;41604;43.142;20.512;2024-02-28T10:55:36;461.70;1740.80
55701;DHT22;41604;43.142;20.512;2024-02-28T10:58:11;461.70;1740.80
55701;DHT22;41604;43.142;20.512;2024-02-28T11:00:39;461.70;1740.80
55701;DHT22;41604;43.142;20.512;2024-02-28T11:03:05;486.40;1715.20
55701;DHT22;41604;43.142;20.512;2024-02-28T11:05:41;486.50;1715.20
55701;DHT22;41604;43.142;20.512;2024-02-28T11:08:11;486.70;1715.20
55701;DHT22;41604;43.142;20.512;2024-02-28T11:10:43;486.80;1715.20
55701;DHT22;41604;43.142;20.512;2024-02-28T11:13:11;486.80;1715.20
55701;DHT22;41604;43.142;20.512;2024-02-28T11:15:46;486.80;1689.60
55701;DHT22;41604;43.142;20.512;2024-02-28T11:18:12;486.80;1664.00
55701;DHT22;41604;43.142;20.512;2024-02-28T11:20:38;486.80;1638.40
55701;DHT22;41604;43.142;20.512;2024-02-28T11:23:06;486.80;1664.00
55701;DHT22;41604;43.142;20.512;2024-02-28T11:25:32;486.70;1664.00
55701;DHT22;41604;43.142;20.512;2024-02-28T11:27:58;486.60;1664.00
55701;DHT22;41604;43.142;20.512;2024-02-28T11:30:25;486.60;1664.00
55701;DHT22;41604;43.142;20.512;2024-02-28T11:32:55;486.50;1664.00
55701;DHT22;41604;43.142;20.512;2024-02-28T11:35:21;486.50;1689.60
55701;DHT22;41604;43.142;20.512;2024-02-28T11:37:47;486.40;1715.20
55701;DHT22;41604;43.142;20.512;2024-02-28T11:40:14;486.50;1715.20
55701;DHT22;41604;43.142;20.512;2024-02-28T11:42:40;486.50;1715.20
55701;DHT22;41604;43.142;20.512;2024-02-28T11:45:09;486.50;1715.20
55701;DHT22;41604;43.142;20.512;2024-02-28T11:47:35;486.60;1715.20
55701;DHT22;41604;43.142;20.512;2024-02-28T11:50:02;486.60;1664.00
55701;DHT22;41604;43.142;20.512;2024-02-28T11:52:31;486.50;1664.00
55701;DHT22;41604;43.142;20.512;2024-02-28T11:54:57;486.50;1689.60
55701;DHT22;41604;43.142;20.512;2024-02-28T11:57:23;486.50;1689.60
55701;DHT22;41604;43.142;20.512;2024-02-28T11:59:49;486.50;1689.60
55701;DHT22;41604;43.142;20.512;2024-02-28T12:02:18;486.50;1689.60
55701;DHT22;41604;43.142;20.512;2024-02-28T12:04:45;486.50;1664.00
55701;DHT22;41604;43.142;20.512;2024-02-28T12:07:11;486.50;1664.00
55701;DHT22;41604;43.142;20.512;2024-02-28T12:09:37;486.50;1664.00
55701;DHT22;41604;43.142;20.512;2024-02-28T12:12:06;486.50;1664.00
55701;DHT22;41604;43.142;20.512;2024-02-28T12:14:38;486.50;1689.60
55701;DHT22;41604;43.142;20.512;2024-02-28T12:17:10;486.40;1715.20
55701;DHT22;41604;43.142;20.512;2024-02-28T12:19:36;461.60;1715.20
55701;DHT22;41604;43.142;20.512;2024-02-28T12:22:02;461.50;1740.80
55701;DHT22;41604;43.142;20.512;2024-02-28T12:24:29;461.50;1740.80
55701;DHT22;41604;43.142;20.512;2024-02-28T12:26:55;461.50;1740.80
55701;DHT22;41604;43.142;20.512;2024-02-28T12:29:21;461.40;1740.80
55701;DHT22;41604;43.142;20.512;2024-02-28T12:31:47;461.50;1740.80
55701;DHT22;41604;43.142;20.512;2024-02-28T12:34:12;461.50;1740.80
55701;DHT22;41604;43.142;20.512;2024-02-28T12:36:41;461.50;1740.80
55701;DHT22;41604;43.142;20.512;2024-02-28T12:39:08;461.50;1740.80
55701;DHT22;41604;43.142;20.512;2024-02-28T12:41:38;461.60;1740.80
55701;DHT22;41604;43.142;20.512;2024-02-28T12:44:05;461.60;1740.80
55701;DHT22;41604;43.142;20.512;2024-02-28T12:46:31;461.60;1740.80
55701;DHT22;41604;43.142;20.512;2024-02-28T12:48:56;461.50;1715.20
55701;DHT22;41604;43.142;20.512;2024-02-28T12:51:51;461.50;1715.20
55701;DHT22;41604;43.142;20.512;2024-02-28T12:54:17;461.60;1740.80
55701;DHT22;41604;43.142;20.512;2024-02-28T12:56:46;461.60;1740.80
55701;DHT22;41604;43.142;20.512;2024-02-28T12:59:12;461.60;1740.80
55701;DHT22;41604;43.142;20.512;2024-02-28T13:01:38;461.70;1740.80
55701;DHT22;41604;43.142;20.512;2024-02-28T13:04:04;486.40;1740.80
55701;DHT22;41604;43.142;20.512;2024-02-28T13:06:30;486.50;1740.80
55701;DHT22;41604;43.142;20.512;2024-02-28T13:08:56;486.50;1715.20
55701;DHT22;41604;43.142;20.512;2024-02-28T13:11:23;486.50;1740.80
55701;DHT22;41604;43.142;20.512;2024-02-28T13:21:13;486.60;1740.80
55701;DHT22;41604;43.142;20.512;2024-02-28T13:23:39;486.60;1715.20
55701;DHT22;41604;43.142;20.512;2024-02-28T13:26:05;486.70;1715.20
55701;DHT22;41604;43.142;20.512;2024-02-28T13:28:31;486.60;1715.20
55701;DHT22;41604;43.142;20.512;2024-02-28T13:31:01;486.60;1715.20
55701;DHT22;41604;43.142;20.512;2024-02-28T13:33:27;486.70;1715.20
55701;DHT22;41604;43.142;20.512;2024-02-28T13:35:53;486.70;1715.20
55701;DHT22;41604;43.142;20.512;2024-02-28T13:38:20;486.70;1715.20
55701;DHT22;41604;43.142;20.512;2024-02-28T13:40:47;486.70;1715.20
55701;DHT22;41604;43.142;20.512;2024-02-28T13:43:13;486.70;1715.20
55701;DHT22;41604;43.142;20.512;2024-02-28T13:45:39;486.70;1715.20
55701;DHT22;41604;43.142;20.512;2024-02-28T13:48:20;486.70;1715.20
55701;DHT22;41604;43.142;20.512;2024-02-28T13:50:48;486.70;1740.80
55701;DHT22;41604;43.142;20.512;2024-02-28T13:53:14;486.60;1740.80
55701;DHT22;41604;43.142;20.512;2024-02-28T13:55:44;486.60;1740.80
55701;DHT22;41604;43.142;20.512;2024-02-28T13:58:14;486.60;1740.80
55701;DHT22;41604;43.142;20.512;2024-02-28T14:00:44;486.60;1715.20
55701;DHT22;41604;43.142;20.512;2024-02-28T14:03:13;486.60;1740.80
55701;DHT22;41604;43.142;20.512;2024-02-28T14:05:39;486.60;1740.80
55701;DHT22;41604;43.142;20.512;2024-02-28T14:08:05;486.60;1740.80
55701;DHT22;41604;43.142;20.512;2024-02-28T14:10:34;486.60;1740.80
55701;DHT22;41604;43.142;20.512;2024-02-28T14:13:00;486.50;1740.80
55701;DHT22;41604;43.142;20.512;2024-02-28T14:15:26;486.40;1766.40
55701;DHT22;41604;43.142;20.512;2024-02-28T14:17:52;486.40;1766.40
55701;DHT22;41604;43.142;20.512;2024-02-28T14:20:18;486.40;1766.40
55701;DHT22;41604;43.142;20.512;2024-02-28T14:22:44;461.70;1766.40
55701;DHT22;41604;43.142;20.512;2024-02-28T14:25:17;461.60;1792.00
55701;DHT22;41604;43.142;20.512;2024-02-28T14:27:44;461.60;1792.00
55701;DHT22;41604;43.142;20.512;2024-02-28T14:30:11;461.70;1766.40
55701;DHT22;41604;43.142;20.512;2024-02-28T14:32:37;461.60;1766.40
55701;DHT22;41604;43.142;20.512;2024-02-28T14:35:05;461.70;1766.40
55701;DHT22;41604;43.142;20.512;2024-02-28T15:16:41;461.70;1766.40
55701;DHT22;41604;43.142;20.512;2024-02-28T15:19:07;461.10;1817.60
55701;DHT22;41604;43.142;20.512;2024-02-28T19:11:15;461.10;1817.60
55701;DHT22;41604;43.142;20.512;2024-02-28T19:25:56;358.90;2201.60
55701;DHT22;41604;43.142;20.512;2024-02-28T19:28:22;333.70;2252.80
55701;DHT22;41604;43.142;20.512;2024-02-28T19:30:47;333.70;2252.80
55701;DHT22;41604;43.142;20.512;2024-02-28T19:33:13;333.50;2278.40
55701;DHT22;41604;43.142;20.512;2024-02-28T19:35:39;333.50;2278.40
55701;DHT22;41604;43.142;20.512;2024-02-28T19:38:04;333.60;2278.40
55701;DHT22;41604;43.142;20.512;2024-02-28T19:40:30;333.50;2278.40
55701;DHT22;41604;43.142;20.512;2024-02-28T19:42:59;333.20;2304.00
55701;DHT22;41604;43.142;20.512;2024-02-28T19:45:25;333.00;2329.60
55701;DHT22;41604;43.142;20.512;2024-02-28T19:47:51;333.00;2329.60
55701;DHT22;41604;43.142;20.512;2024-02-28T19:50:17;332.90;2329.60
55701;DHT22;41604;43.142;20.512;2024-02-28T19:52:43;332.90;2329.60
55701;DHT22;41604;43.142;20.512;2024-02-28T19:55:09;332.80;2329.60
55701;DHT22;41604;43.142;20.512;2024-02-28T19:57:35;332.80;2329.60
55701;DHT22;41604;43.142;20.512;2024-02-28T20:00:00;332.80;2329.60
55701;DHT22;41604;43.142;20.512;2024-02-28T20:02:31;332.80;2329.60
55701;DHT22;41604;43.142;20.512;2024-02-28T20:04:57;332.80;2329.60
55701;DHT22;41604;43.142;20.512;2024-02-28T20:07:23;308.10;2304.00
55701;DHT22;41604;43.142;20.512;2024-02-28T20:09:49;308.10;2304.00
55701;DHT22;41604;43.142;20.512;2024-02-28T20:12:15;332.80;2329.60
55701;DHT22;41604;43.142;20.512;2024-02-28T20:14:40;308.10;2304.00
55701;DHT22;41604;43.142;20.512;2024-02-28T20:17:09;308.10;2304.00
55701;DHT22;41604;43.142;20.512;2024-02-28T20:19:36;308.10;2304.00
55701;DHT22;41604;43.142;20.512;2024-02-28T20:22:03;308.10;2304.00
55701;DHT22;41604;43.142;20.512;2024-02-28T20:24:29;308.10;2304.00
55701;DHT22;41604;43.142;20.512;2024-02-28T20:26:55;308.00;2304.00
55701;DHT22;41604;43.142;20.512;2024-02-28T20:29:20;308.00;2304.00
55701;DHT22;41604;43.142;20.512;2024-02-28T20:31:46;308.00;2304.00
55701;DHT22;41604;43.142;20.512;2024-02-28T20:34:12;308.00;2304.00
55701;DHT22;41604;43.142;20.512;2024-02-28T20:36:38;308.00;2304.00
55701;DHT22;41604;43.142;20.512;2024-02-28T20:39:05;307.90;2304.00
55701;DHT22;41604;43.142;20.512;2024-02-28T20:41:37;307.90;2304.00
55701;DHT22;41604;43.142;20.512;2024-02-28T20:44:04;307.90;2304.00
55701;DHT22;41604;43.142;20.512;2024-02-28T20:46:30;307.80;2304.00
55701;DHT22;41604;43.142;20.512;2024-02-28T20:48:56;307.80;2304.00
55701;DHT22;41604;43.142;20.512;2024-02-28T20:51:22;307.80;2304.00
55701;DHT22;41604;43.142;20.512;2024-02-28T20:53:48;307.80;2304.00
55701;DHT22;41604;43.142;20.512;2024-02-28T20:56:24;307.80;2304.00
55701;DHT22;41604;43.142;20.512;2024-02-28T20:58:54;307.70;2304.00